Time;durP1;ratioP1;P1;durP2;ratioP2;P2;SDS_P1;SDS_P2;PMS_P1;PMS_P2;Temp;Humidity;BMP_temperature;BMP_pressure;BME280_temperature;BME280_humidity;BME280_pressure;Samples;Min_cycle;Max_cycle;Signal;HPM_P1;HPM_P2
2023/12/03 00:02:16;;;;;;;13.43;9.70;;;16.40;56.20;;;;;;5052722;28;20214;-63
2023/12/03 00:04:41;;;;;;;11.68;9.73;;;16.40;56.00;;;;;;5054156;28;20638;-63
2023/12/03 00:07:07;;;;;;;12.00;9.48;;;16.40;56.00;;;;;;5053343;28;20178;-65
2023/12/03 00:09:33;;;;;;;10.55;9.45;;;16.40;56.10;;;;;;5052514;28;20171;-66
2023/12/03 00:11:58;;;;;;;11.77;10.02;;;16.40;56.00;;;;;;5054479;28;20197;-67
2023/12/03 00:14:24;;;;;;;11.68;9.57;;;16.40;56.20;;;;;;5053397;28;20171;-66
2023/12/03 00:16:49;;;;;;;10.90;9.27;;;16.40;56.10;;;;;;5054481;28;20183;-65
2023/12/03 00:19:15;;;;;;;12.82;10.13;;;16.30;56.10;;;;;;5053741;28;20171;-65
2023/12/03 00:21:40;;;;;;;12.02;9.57;;;16.30;56.20;;;;;;5053696;28;20202;-65
2023/12/03 00:24:09;;;;;;;10.95;9.30;;;16.30;56.10;;;;;;5054226;28;20224;-65
2023/12/03 00:26:34;;;;;;;11.27;9.82;;;16.30;56.30;;;;;;5052527;28;20202;-64
2023/12/03 00:29:00;;;;;;;10.48;9.25;;;16.30;56.30;;;;;;5053986;28;20640;-64
2023/12/03 00:31:25;;;;;;;11.57;9.93;;;16.30;56.20;;;;;;5053616;28;20274;-63
2023/12/03 00:33:51;;;;;;;11.18;10.00;;;16.30;56.20;;;;;;5053003;28;20249;-64
2023/12/03 00:36:16;;;;;;;11.73;10.15;;;16.20;56.10;;;;;;5053405;28;20254;-64
2023/12/03 00:38:42;;;;;;;10.68;9.52;;;16.20;56.10;;;;;;5053924;28;20262;-63
2023/12/03 00:41:07;;;;;;;11.05;9.48;;;16.20;56.30;;;;;;5053168;28;20258;-64
2023/12/03 00:43:33;;;;;;;11.27;9.95;;;16.20;55.90;;;;;;5053197;28;20770;-63
2023/12/03 00:46:00;;;;;;;12.40;9.95;;;16.20;56.20;;;;;;5053702;28;20168;-66
2023/12/03 00:48:26;;;;;;;11.95;10.75;;;16.10;55.90;;;;;;5052427;28;20191;-65
2023/12/03 00:50:52;;;;;;;10.32;9.27;;;16.10;55.90;;;;;;5053352;28;20661;-65
2023/12/03 00:53:17;;;;;;;12.25;10.40;;;16.10;56.50;;;;;;5053261;28;20230;-66
2023/12/03 00:55:43;;;;;;;13.95;10.80;;;16.10;55.90;;;;;;5052866;28;20270;-65
2023/12/03 00:58:08;;;;;;;12.27;10.90;;;16.10;56.00;;;;;;5053110;28;20171;-65
2023/12/03 01:00:34;;;;;;;12.65;10.68;;;16.10;55.90;;;;;;5052705;28;20200;-63
2023/12/03 01:02:59;;;;;;;13.23;10.30;;;16.10;55.70;;;;;;5052696;28;20609;-63
2023/12/03 01:05:25;;;;;;;13.93;10.95;;;16.00;55.50;;;;;;5052846;28;20713;-65
2023/12/03 01:07:50;;;;;;;14.90;11.45;;;16.00;55.50;;;;;;5053227;28;20185;-66
2023/12/03 01:10:16;;;;;;;12.77;10.07;;;16.00;55.40;;;;;;5052403;28;20248;-67
2023/12/03 01:12:41;;;;;;;13.95;10.50;;;16.00;55.40;;;;;;5053282;28;20203;-66
2023/12/03 01:15:07;;;;;;;12.73;10.55;;;16.00;55.30;;;;;;5053168;28;20179;-65
2023/12/03 01:17:33;;;;;;;15.18;11.50;;;16.00;55.40;;;;;;5052203;28;20546;-64
2023/12/03 01:19:58;;;;;;;12.65;11.32;;;15.90;55.30;;;;;;5052947;28;20637;-64
2023/12/03 01:22:24;;;;;;;13.63;11.63;;;15.90;55.20;;;;;;5052898;28;20215;-65
2023/12/03 01:24:49;;;;;;;15.45;12.10;;;15.90;55.40;;;;;;5052481;28;20175;-64
2023/12/03 01:27:15;;;;;;;14.35;11.32;;;15.90;55.30;;;;;;5052675;28;20182;-65
2023/12/03 01:29:42;;;;;;;11.88;10.48;;;15.90;55.20;;;;;;5052180;28;20206;-64
2023/12/03 01:32:07;;;;;;;15.52;11.73;;;15.90;55.30;;;;;;5052710;28;20187;-64
2023/12/03 01:34:33;;;;;;;15.43;11.27;;;15.90;55.20;;;;;;5052449;28;20607;-63
2023/12/03 01:36:58;;;;;;;14.32;11.70;;;15.90;55.20;;;;;;5052114;28;20222;-63
2023/12/03 01:39:24;;;;;;;14.38;10.95;;;15.90;55.20;;;;;;5052208;28;20548;-64
2023/12/03 01:41:52;;;;;;;14.90;11.77;;;15.80;55.20;;;;;;5052447;28;20751;-64
2023/12/03 01:44:18;;;;;;;15.98;12.38;;;15.80;55.10;;;;;;5051605;28;20167;-64
2023/12/03 01:46:46;;;;;;;14.23;12.20;;;15.80;55.20;;;;;;5052584;28;20252;-64
2023/12/03 01:49:12;;;;;;;14.68;12.27;;;15.80;55.10;;;;;;5052356;28;20257;-64
2023/12/03 01:51:37;;;;;;;16.73;12.02;;;15.80;55.10;;;;;;5051379;28;20737;-64
2023/12/03 01:54:03;;;;;;;15.25;12.15;;;15.80;55.10;;;;;;5051333;28;20171;-65
2023/12/03 01:56:28;;;;;;;15.40;11.80;;;15.80;55.10;;;;;;5052106;28;20171;-65
2023/12/03 01:58:54;;;;;;;13.65;11.75;;;15.80;55.10;;;;;;5051729;28;20262;-64
2023/12/03 02:01:19;;;;;;;13.63;11.77;;;15.80;55.10;;;;;;5051533;28;20266;-63
2023/12/03 02:03:45;;;;;;;14.75;11.50;;;15.70;55.10;;;;;;5052447;28;20184;-64
2023/12/03 02:06:11;;;;;;;15.38;11.65;;;15.70;55.10;;;;;;5051673;28;20175;-66
2023/12/03 02:08:37;;;;;;;15.57;12.13;;;15.70;55.10;;;;;;5051515;28;20209;-66
2023/12/03 02:11:03;;;;;;;15.60;12.15;;;15.70;55.10;;;;;;5050555;28;20202;-66
2023/12/03 02:13:30;;;;;;;13.98;11.45;;;15.70;55.10;;;;;;5049855;28;20183;-66
2023/12/03 02:15:56;;;;;;;15.68;12.18;;;15.70;55.20;;;;;;5051765;28;20187;-65
2023/12/03 02:18:22;;;;;;;14.95;11.85;;;15.70;55.10;;;;;;5051336;28;20171;-65
2023/12/03 02:20:47;;;;;;;15.20;11.95;;;15.70;55.10;;;;;;5051302;28;20216;-64
2023/12/03 02:23:14;;;;;;;14.63;11.55;;;15.70;55.90;;;;;;5052036;28;20349;-64
2023/12/03 02:25:41;;;;;;;15.02;11.48;;;15.60;55.20;;;;;;5052646;28;20187;-65
2023/12/03 02:28:06;;;;;;;14.38;11.25;;;15.60;55.10;;;;;;5051680;28;20539;-65
2023/12/03 02:30:32;;;;;;;15.18;11.77;;;15.60;55.20;;;;;;5052063;28;20186;-64
2023/12/03 02:32:57;;;;;;;15.38;12.20;;;15.60;55.10;;;;;;5051793;28;20179;-63
2023/12/03 02:35:23;;;;;;;14.98;12.13;;;15.60;55.20;;;;;;5051734;28;20175;-63
2023/12/03 02:37:48;;;;;;;15.50;11.77;;;15.60;55.20;;;;;;5052503;28;20544;-64
2023/12/03 02:40:14;;;;;;;15.27;11.63;;;15.60;55.20;;;;;;5051559;28;21015;-64
2023/12/03 02:42:39;;;;;;;15.68;12.55;;;15.60;55.20;;;;;;5052159;28;20227;-63
2023/12/03 02:45:06;;;;;;;14.52;11.95;;;15.60;55.20;;;;;;5052510;28;20211;-64
2023/12/03 02:47:32;;;;;;;13.93;11.85;;;15.60;55.20;;;;;;5051049;28;20206;-64
2023/12/03 02:49:57;;;;;;;15.13;12.95;;;15.60;55.20;;;;;;5052373;28;20202;-66
2023/12/03 02:52:23;;;;;;;16.67;12.02;;;15.60;55.20;;;;;;5051825;28;20227;-65
2023/12/03 02:54:48;;;;;;;15.13;12.32;;;15.50;55.20;;;;;;5051288;28;20167;-66
2023/12/03 02:57:14;;;;;;;13.07;11.52;;;15.50;55.20;;;;;;5051441;28;20179;-64
2023/12/03 02:59:39;;;;;;;15.77;11.27;;;15.50;55.20;;;;;;5052129;28;20170;-65
2023/12/03 03:02:05;;;;;;;16.40;13.80;;;15.50;55.20;;;;;;5051006;28;20209;-64
2023/12/03 03:04:31;;;;;;;14.15;11.63;;;15.50;55.20;;;;;;5052016;28;20193;-64
2023/12/03 03:06:56;;;;;;;15.07;12.40;;;15.50;55.20;;;;;;5052077;28;20690;-65
2023/12/03 03:09:22;;;;;;;14.75;11.90;;;15.50;55.30;;;;;;5051073;28;20167;-66
2023/12/03 03:11:47;;;;;;;15.43;12.45;;;15.50;55.70;;;;;;5052008;28;20178;-67
2023/12/03 03:14:13;;;;;;;14.70;11.80;;;15.40;55.30;;;;;;5051786;28;20217;-66
2023/12/03 03:16:38;;;;;;;16.38;12.68;;;15.50;55.30;;;;;;5051149;28;20175;-65
2023/12/03 03:19:05;;;;;;;13.48;11.73;;;15.40;55.30;;;;;;5052368;28;20182;-65
2023/12/03 03:21:31;;;;;;;14.45;11.55;;;15.40;55.30;;;;;;5051642;28;20186;-64
2023/12/03 03:23:56;;;;;;;14.65;12.02;;;15.40;55.30;;;;;;5055497;28;20183;-66
2023/12/03 03:26:22;;;;;;;14.10;11.15;;;15.40;55.30;;;;;;5055805;28;20740;-65
2023/12/03 03:28:47;;;;;;;13.02;11.45;;;15.40;55.30;;;;;;5055790;28;20661;-64
2023/12/03 03:31:13;;;;;;;15.07;11.93;;;15.40;55.30;;;;;;5054819;28;20257;-65
2023/12/03 03:33:38;;;;;;;15.07;11.40;;;15.40;55.30;;;;;;5055531;28;20211;-63
2023/12/03 03:36:04;;;;;;;16.23;12.13;;;15.40;55.30;;;;;;5055090;28;20218;-64
2023/12/03 03:38:29;;;;;;;14.70;12.32;;;15.40;55.30;;;;;;5054711;28;20175;-63
2023/12/03 03:40:55;;;;;;;13.50;11.50;;;15.30;55.30;;;;;;5055793;28;20269;-64
2023/12/03 03:43:21;;;;;;;15.82;12.82;;;15.30;55.30;;;;;;5054628;28;20207;-64
2023/12/03 03:45:46;;;;;;;15.63;11.93;;;15.40;55.40;;;;;;5055268;28;20179;-66
2023/12/03 03:48:12;;;;;;;15.40;12.60;;;15.30;55.30;;;;;;5055719;28;20175;-65
2023/12/03 03:50:37;;;;;;;15.25;12.45;;;15.30;55.30;;;;;;5054746;28;20175;-65
2023/12/03 03:53:03;;;;;;;15.88;12.05;;;15.30;55.30;;;;;;5055391;28;20713;-65
2023/12/03 03:55:28;;;;;;;14.80;12.30;;;15.30;55.40;;;;;;5055067;28;20529;-66
2023/12/03 03:57:54;;;;;;;14.55;11.65;;;15.30;55.40;;;;;;5054657;28;20175;-64
2023/12/03 04:00:20;;;;;;;14.45;11.18;;;15.30;55.40;;;;;;5055035;28;20187;-64
2023/12/03 04:02:45;;;;;;;13.57;11.88;;;15.30;55.40;;;;;;5055177;28;20215;-63
2023/12/03 04:05:11;;;;;;;13.82;11.75;;;15.30;55.40;;;;;;5054738;28;20186;-65
2023/12/03 04:07:36;;;;;;;14.13;11.15;;;15.30;55.50;;;;;;5054962;28;20182;-65
2023/12/03 04:10:02;;;;;;;14.70;11.43;;;15.30;55.50;;;;;;5055255;28;20174;-66
2023/12/03 04:12:27;;;;;;;14.18;11.75;;;15.30;55.50;;;;;;5054211;28;20177;-67
2023/12/03 04:14:53;;;;;;;14.13;11.85;;;15.20;56.10;;;;;;5054873;28;20182;-66
2023/12/03 04:17:18;;;;;;;14.07;12.02;;;15.20;55.40;;;;;;5054653;28;20179;-65
2023/12/03 04:19:43;;;;;;;15.82;11.98;;;15.20;55.40;;;;;;5054394;28;20175;-64
2023/12/03 04:22:09;;;;;;;13.98;11.85;;;15.20;55.40;;;;;;5054815;28;20564;-65
2023/12/03 04:24:35;;;;;;;13.98;12.32;;;15.20;55.50;;;;;;5054579;28;20178;-65
2023/12/03 04:27:00;;;;;;;14.50;12.32;;;15.20;55.40;;;;;;5054170;28;20179;-64
2023/12/03 04:29:26;;;;;;;13.27;11.23;;;15.20;55.50;;;;;;5054487;28;20171;-65
2023/12/03 04:31:51;;;;;;;14.75;11.88;;;15.20;55.50;;;;;;5054693;28;20171;-64
2023/12/03 04:34:17;;;;;;;15.00;12.60;;;15.20;55.40;;;;;;5052746;28;20170;-64
2023/12/03 04:36:43;;;;;;;11.98;10.68;;;15.20;55.40;;;;;;5054862;28;20175;-64
2023/12/03 04:39:09;;;;;;;12.45;11.15;;;15.20;55.50;;;;;;5054672;28;20178;-64
2023/12/03 04:41:35;;;;;;;13.02;11.68;;;15.10;55.40;;;;;;5053615;28;20266;-65
2023/12/03 04:44:00;;;;;;;13.30;10.70;;;15.10;55.50;;;;;;5053652;28;20183;-64
2023/12/03 04:46:26;;;;;;;12.95;11.65;;;15.20;55.50;;;;;;5052996;28;20179;-63
2023/12/03 04:48:51;;;;;;;12.55;11.25;;;15.10;55.40;;;;;;5053862;28;20221;-65
2023/12/03 04:51:17;;;;;;;13.35;11.55;;;15.10;55.50;;;;;;5053839;28;20233;-66
2023/12/03 04:53:42;;;;;;;14.82;12.38;;;15.10;55.40;;;;;;5053444;28;20589;-65
2023/12/03 04:56:08;;;;;;;13.10;11.68;;;15.10;55.40;;;;;;5054445;28;20637;-65
2023/12/03 04:58:34;;;;;;;12.93;11.45;;;15.10;55.40;;;;;;5053995;28;20210;-64
2023/12/03 05:00:59;;;;;;;13.07;11.20;;;15.10;55.40;;;;;;5053693;28;20207;-64
2023/12/03 05:03:25;;;;;;;14.23;11.23;;;15.10;55.50;;;;;;5053983;28;20211;-64
2023/12/03 05:05:51;;;;;;;14.27;11.55;;;15.10;55.50;;;;;;5053833;28;20175;-65
2023/12/03 05:08:17;;;;;;;12.13;10.48;;;15.00;55.40;;;;;;5053207;28;20191;-66
2023/12/03 05:10:43;;;;;;;11.77;10.60;;;15.10;55.50;;;;;;5053953;28;20659;-65
2023/12/03 05:13:08;;;;;;;12.57;11.15;;;15.10;55.50;;;;;;5054013;28;20205;-66
2023/12/03 05:15:34;;;;;;;13.23;10.82;;;15.00;55.50;;;;;;5052871;28;20175;-65
2023/12/03 05:17:59;;;;;;;12.63;11.15;;;15.10;55.50;;;;;;5053841;28;20630;-65
2023/12/03 05:20:25;;;;;;;12.20;10.90;;;15.10;55.50;;;;;;5052542;28;20176;-63
2023/12/03 05:22:51;;;;;;;11.85;10.65;;;15.00;55.40;;;;;;5053141;28;20214;-64
2023/12/03 05:25:18;;;;;;;11.65;10.48;;;15.00;55.50;;;;;;5053433;28;20540;-65
2023/12/03 05:27:43;;;;;;;10.85;9.75;;;15.00;55.50;;;;;;5053098;28;20206;-64
2023/12/03 05:30:10;;;;;;;11.82;10.45;;;15.00;55.50;;;;;;5052828;28;20210;-65
2023/12/03 05:32:35;;;;;;;12.50;9.70;;;15.00;55.50;;;;;;5053535;28;20591;-63
2023/12/03 05:35:01;;;;;;;11.52;10.43;;;15.00;55.50;;;;;;5053743;28;20652;-63
2023/12/03 05:37:28;;;;;;;12.32;10.73;;;15.00;55.40;;;;;;5052559;28;20171;-64
2023/12/03 05:39:54;;;;;;;11.60;10.38;;;15.00;55.50;;;;;;5053583;28;20244;-64
2023/12/03 05:42:20;;;;;;;12.75;10.25;;;15.00;55.50;;;;;;5052978;28;20680;-64
2023/12/03 05:44:46;;;;;;;9.70;8.80;;;15.00;55.50;;;;;;5051929;28;20233;-63
2023/12/03 05:47:12;;;;;;;12.20;10.05;;;14.90;55.50;;;;;;5053256;28;20183;-64
2023/12/03 05:49:40;;;;;;;11.20;9.55;;;14.90;55.40;;;;;;5052768;28;20163;-65
2023/12/03 05:52:06;;;;;;;11.30;10.10;;;14.90;55.60;;;;;;5052602;28;20233;-65
2023/12/03 05:54:31;;;;;;;10.65;9.55;;;14.90;55.50;;;;;;5052915;28;20175;-65
2023/12/03 05:56:57;;;;;;;11.30;10.10;;;14.90;55.50;;;;;;5051714;28;20179;-64
2023/12/03 05:59:23;;;;;;;11.07;9.75;;;14.90;55.50;;;;;;5052771;28;20261;-65
2023/12/03 06:01:49;;;;;;;12.95;9.45;;;14.90;55.50;;;;;;5053097;28;20227;-63
2023/12/03 06:04:14;;;;;;;10.40;9.30;;;14.90;55.50;;;;;;5051971;28;20186;-64
2023/12/03 06:06:40;;;;;;;13.07;10.77;;;14.90;55.50;;;;;;5053100;28;20179;-65
2023/12/03 06:09:05;;;;;;;11.60;10.40;;;14.90;55.60;;;;;;5052948;28;20179;-66
2023/12/03 06:11:35;;;;;;;11.63;9.70;;;14.90;55.50;;;;;;5051912;28;20201;-67
2023/12/03 06:14:01;;;;;;;11.35;9.85;;;14.80;55.50;;;;;;5052850;28;20167;-67
2023/12/03 06:16:27;;;;;;;10.10;9.10;;;14.80;55.50;;;;;;5052814;28;20262;-65
2023/12/03 06:18:52;;;;;;;10.93;9.57;;;14.80;55.50;;;;;;5052283;28;20167;-64
2023/12/03 06:21:18;;;;;;;10.02;9.00;;;14.80;55.50;;;;;;5052458;28;20219;-65
2023/12/03 06:23:43;;;;;;;10.93;9.57;;;14.80;55.40;;;;;;5052643;28;20295;-65
2023/12/03 06:26:09;;;;;;;11.27;9.52;;;14.80;55.50;;;;;;5051794;28;20709;-65
2023/12/03 06:28:34;;;;;;;10.68;9.38;;;14.80;55.50;;;;;;5052497;28;20281;-64
2023/12/03 06:31:00;;;;;;;10.20;9.30;;;14.80;55.50;;;;;;5051565;28;20878;-64
2023/12/03 06:33:26;;;;;;;10.57;9.57;;;14.60;55.40;;;;;;5050870;28;20183;-63
2023/12/03 06:35:53;;;;;;;10.30;8.85;;;14.80;55.50;;;;;;5052220;28;20175;-64
2023/12/03 06:38:19;;;;;;;10.35;9.32;;;14.80;55.50;;;;;;5051324;28;20582;-63
2023/12/03 06:40:44;;;;;;;9.68;8.55;;;14.80;55.50;;;;;;5051542;28;20171;-64
2023/12/03 06:43:10;;;;;;;10.45;9.32;;;14.80;55.60;;;;;;5052492;28;20215;-64
2023/12/03 06:45:37;;;;;;;10.68;8.95;;;14.70;55.60;;;;;;5052069;28;20176;-65
2023/12/03 06:48:03;;;;;;;9.93;8.75;;;14.70;55.70;;;;;;5051257;28;20225;-65
2023/12/03 06:50:28;;;;;;;10.13;9.05;;;14.80;55.60;;;;;;5051897;28;20167;-65
2023/12/03 06:52:54;;;;;;;10.57;8.88;;;14.80;55.60;;;;;;5051394;28;20632;-65
2023/12/03 06:55:19;;;;;;;9.63;8.63;;;14.80;55.50;;;;;;5051233;28;20638;-66
2023/12/03 06:57:45;;;;;;;9.52;8.52;;;14.80;55.50;;;;;;5051423;28;20176;-64
2023/12/03 07:00:11;;;;;;;10.10;8.90;;;14.80;55.50;;;;;;5051572;28;20630;-65
2023/12/03 07:02:36;;;;;;;9.77;8.77;;;14.80;55.60;;;;;;5051801;28;20215;-64
2023/12/03 07:05:02;;;;;;;10.02;8.45;;;14.80;55.50;;;;;;5052155;28;20533;-65
2023/12/03 07:07:28;;;;;;;9.73;8.73;;;14.80;55.50;;;;;;5050954;28;20619;-66
2023/12/03 07:09:53;;;;;;;9.20;8.30;;;14.80;55.60;;;;;;5051916;28;20182;-66
2023/12/03 07:12:19;;;;;;;9.45;8.50;;;14.80;55.60;;;;;;5051804;28;20174;-67
2023/12/03 07:14:45;;;;;;;10.20;9.05;;;14.90;55.60;;;;;;5051000;28;20179;-66
2023/12/03 07:17:10;;;;;;;8.45;7.65;;;14.90;55.70;;;;;;5051664;28;20206;-65
2023/12/03 07:19:36;;;;;;;8.85;7.95;;;15.00;55.90;;;;;;5051563;28;20266;-64
2023/12/03 07:22:01;;;;;;;9.32;8.23;;;15.20;55.90;;;;;;5050971;28;20205;-65
2023/12/03 07:24:27;;;;;;;8.57;7.68;;;15.40;55.70;;;;;;5051544;28;20170;-65
2023/12/03 07:26:52;;;;;;;9.18;8.15;;;15.60;55.50;;;;;;5052022;28;20171;-65
2023/12/03 07:29:18;;;;;;;8.88;7.97;;;15.80;55.40;;;;;;5051037;28;20175;-64
2023/12/03 07:31:44;;;;;;;8.30;7.00;;;16.00;55.10;;;;;;5051721;28;20523;-64
2023/12/03 07:34:09;;;;;;;7.70;6.82;;;16.10;55.00;;;;;;5051903;28;20170;-64
2023/12/03 07:36:35;;;;;;;7.40;6.70;;;16.30;54.80;;;;;;5050917;28;20262;-64
2023/12/03 07:39:00;;;;;;;6.50;5.90;;;16.50;55.30;;;;;;5051663;28;20203;-64
2023/12/03 07:41:26;;;;;;;7.30;6.53;;;16.60;54.40;;;;;;5051232;28;20274;-64
2023/12/03 07:43:51;;;;;;;8.68;7.07;;;16.70;54.40;;;;;;5050124;28;20194;-64
2023/12/03 07:46:17;;;;;;;6.95;6.25;;;16.80;54.20;;;;;;5050932;28;20656;-64
2023/12/03 07:48:43;;;;;;;7.13;6.43;;;16.80;54.30;;;;;;5051671;28;20176;-64
2023/12/03 07:51:09;;;;;;;7.20;6.05;;;16.90;54.30;;;;;;5050643;28;20313;-64
2023/12/03 07:53:35;;;;;;;6.93;6.00;;;16.90;54.30;;;;;;5051083;28;20283;-65
2023/12/03 07:56:00;;;;;;;7.63;6.25;;;16.90;54.40;;;;;;5050771;28;20599;-65
2023/12/03 07:58:26;;;;;;;7.40;6.65;;;16.80;54.20;;;;;;5050503;28;20713;-64
2023/12/03 08:00:52;;;;;;;7.43;6.47;;;16.80;54.50;;;;;;5051677;28;20591;-64
2023/12/03 08:03:17;;;;;;;7.05;6.35;;;16.80;54.60;;;;;;5051108;28;20685;-64
2023/12/03 08:05:43;;;;;;;7.88;6.40;;;16.80;54.60;;;;;;5050841;28;20171;-65
2023/12/03 08:08:08;;;;;;;6.55;5.95;;;16.80;54.70;;;;;;5052481;28;20545;-67
2023/12/03 08:10:34;;;;;;;8.45;6.97;;;16.80;54.80;;;;;;5054198;28;20164;-65
2023/12/03 08:12:59;;;;;;;7.03;6.13;;;16.70;54.80;;;;;;5055426;28;20607;-67
2023/12/03 08:15:25;;;;;;;7.40;5.75;;;16.70;54.90;;;;;;5054930;28;20167;-66
2023/12/03 08:17:51;;;;;;;6.38;5.78;;;16.70;54.90;;;;;;5054500;28;20175;-65
2023/12/03 08:20:17;;;;;;;6.72;6.03;;;16.80;54.90;;;;;;5054814;28;20232;-64
2023/12/03 08:22:42;;;;;;;6.75;5.70;;;16.70;54.90;;;;;;5054711;28;20297;-64
2023/12/03 08:25:08;;;;;;;6.65;5.95;;;16.70;54.90;;;;;;5054176;28;20175;-65
2023/12/03 08:27:33;;;;;;;6.85;6.15;;;16.70;54.90;;;;;;5054733;28;20566;-65
2023/12/03 08:29:59;;;;;;;8.35;6.15;;;16.70;55.50;;;;;;5054970;28;20581;-65
2023/12/03 08:32:24;;;;;;;7.65;6.22;;;16.70;54.70;;;;;;5054010;28;20732;-63
2023/12/03 08:34:50;;;;;;;7.13;6.43;;;16.70;54.80;;;;;;5054636;28;20217;-64
2023/12/03 08:37:16;;;;;;;6.55;5.95;;;16.70;54.90;;;;;;5054452;28;20225;-64
2023/12/03 08:39:41;;;;;;;6.22;5.63;;;16.80;54.90;;;;;;5053901;28;20277;-65
2023/12/03 08:42:07;;;;;;;5.80;5.20;;;16.80;54.90;;;;;;5054563;28;20250;-65
2023/12/03 08:44:33;;;;;;;6.53;5.88;;;16.80;54.80;;;;;;5054458;28;20470;-64
2023/12/03 08:46:59;;;;;;;7.50;5.72;;;16.90;54.80;;;;;;5053615;28;20174;-64
2023/12/03 08:49:25;;;;;;;7.50;6.55;;;16.90;54.60;;;;;;5054371;28;20254;-62
2023/12/03 08:51:50;;;;;;;7.10;6.25;;;16.90;54.40;;;;;;5054317;28;20268;-61
2023/12/03 08:54:16;;;;;;;8.13;5.82;;;16.90;54.80;;;;;;5053409;28;20676;-62
2023/12/03 08:56:43;;;;;;;6.30;5.70;;;16.90;54.60;;;;;;5054519;28;20665;-61
2023/12/03 08:59:08;;;;;;;7.05;6.20;;;16.90;55.30;;;;;;5054491;28;20179;-61
2023/12/03 09:01:34;;;;;;;7.18;6.45;;;16.90;54.80;;;;;;5053159;28;20171;-60
2023/12/03 09:03:59;;;;;;;8.68;6.40;;;16.90;54.80;;;;;;5054203;28;20179;-60
2023/12/03 09:06:25;;;;;;;8.32;6.10;;;16.90;54.90;;;;;;5053560;28;20221;-61
2023/12/03 09:08:51;;;;;;;7.93;6.55;;;16.90;54.90;;;;;;5053304;28;20699;-61
2023/12/03 09:11:16;;;;;;;7.38;5.90;;;17.00;55.30;;;;;;5053565;28;20809;-62
2023/12/03 09:13:42;;;;;;;6.18;5.50;;;16.90;55.10;;;;;;5054208;28;20549;-62
2023/12/03 09:16:08;;;;;;;7.07;5.95;;;16.90;55.10;;;;;;5053525;28;20629;-61
2023/12/03 09:18:38;;;;;;;7.25;6.28;;;16.90;55.10;;;;;;5053619;28;20179;-60
2023/12/03 09:21:06;;;;;;;7.63;5.72;;;16.90;55.00;;;;;;5052532;28;20715;-60
2023/12/03 09:23:33;;;;;;;8.10;6.50;;;16.90;55.10;;;;;;5053451;28;20229;-61
2023/12/03 09:25:59;;;;;;;7.35;6.22;;;16.90;55.20;;;;;;5053979;28;20186;-61
2023/12/03 09:28:24;;;;;;;6.65;5.60;;;16.80;55.20;;;;;;5052923;28;20608;-61
2023/12/03 09:30:50;;;;;;;6.43;5.80;;;16.80;55.20;;;;;;5053771;28;20598;-60
2023/12/03 09:33:16;;;;;;;6.72;6.03;;;16.70;55.30;;;;;;5053438;28;20238;-59
2023/12/03 09:35:41;;;;;;;6.60;5.60;;;16.70;55.70;;;;;;5052832;28;20175;-60
2023/12/03 09:38:07;;;;;;;7.18;6.32;;;16.60;55.50;;;;;;5053458;28;20266;-61
2023/12/03 09:40:33;;;;;;;6.82;5.50;;;16.60;55.70;;;;;;5053134;28;20207;-60
2023/12/03 09:43:01;;;;;;;7.10;5.75;;;16.50;55.70;;;;;;5051529;28;20250;-61
2023/12/03 09:45:27;;;;;;;7.03;5.90;;;16.50;55.90;;;;;;5051857;28;20179;-61
2023/12/03 09:47:57;;;;;;;5.97;5.38;;;16.60;55.70;;;;;;5053314;28;20188;-61
2023/12/03 09:50:22;;;;;;;6.82;5.30;;;16.40;55.70;;;;;;5051035;28;20202;-61
2023/12/03 09:52:51;;;;;;;6.82;6.03;;;16.40;55.80;;;;;;5052033;28;20230;-61
2023/12/03 09:55:17;;;;;;;6.22;5.40;;;16.40;55.80;;;;;;5051833;28;20225;-61
2023/12/03 09:57:44;;;;;;;6.03;5.22;;;16.40;55.80;;;;;;5052430;28;20174;-61
2023/12/03 10:00:10;;;;;;;5.55;5.03;;;16.30;55.90;;;;;;5053197;28;20214;-62
2023/12/03 10:02:36;;;;;;;5.93;5.25;;;16.30;56.00;;;;;;5052735;28;20211;-60
2023/12/03 10:05:02;;;;;;;6.30;5.60;;;16.30;56.00;;;;;;5051110;28;20164;-60
2023/12/03 10:07:28;;;;;;;7.07;5.72;;;16.20;55.60;;;;;;5052505;28;20175;-61
2023/12/03 10:09:58;;;;;;;7.95;5.72;;;16.20;55.70;;;;;;5053027;28;20187;-61
2023/12/03 10:12:25;;;;;;;6.35;5.43;;;16.20;55.70;;;;;;5051845;28;20542;-61
2023/12/03 10:14:51;;;;;;;5.65;5.05;;;16.20;55.80;;;;;;5052610;28;20175;-61
2023/12/03 10:17:20;;;;;;;6.55;5.55;;;16.20;55.70;;;;;;5051722;28;20521;-61
2023/12/03 10:19:45;;;;;;;7.65;5.53;;;16.20;55.70;;;;;;5052203;28;20175;-60
2023/12/03 10:22:11;;;;;;;6.72;6.03;;;16.20;55.90;;;;;;5052553;28;20229;-62
2023/12/03 10:24:49;;;;;;;6.53;5.57;;;16.20;55.90;;;;;;5051715;28;20579;-61
2023/12/03 10:27:15;;;;;;;6.22;5.63;;;16.10;55.80;;;;;;5052264;28;20178;-61
2023/12/03 10:29:40;;;;;;;6.57;5.43;;;16.10;55.80;;;;;;5052166;28;20179;-61
2023/12/03 10:32:07;;;;;;;6.78;5.68;;;16.10;55.90;;;;;;5050666;28;20641;-61
2023/12/03 10:34:32;;;;;;;6.70;5.43;;;16.10;55.90;;;;;;5051940;28;20661;-60
2023/12/03 10:37:00;;;;;;;5.75;5.15;;;16.10;55.90;;;;;;5052375;28;20175;-61
2023/12/03 10:39:26;;;;;;;6.60;5.90;;;16.10;55.90;;;;;;5050100;28;20167;-60
2023/12/03 10:41:51;;;;;;;6.30;5.45;;;16.10;55.70;;;;;;5052131;28;20186;-61
2023/12/03 10:44:24;;;;;;;6.93;5.45;;;16.10;55.90;;;;;;5052013;28;20179;-60
2023/12/03 10:46:52;;;;;;;6.00;5.30;;;16.10;55.80;;;;;;5051541;28;20175;-60
2023/12/03 10:49:18;;;;;;;5.00;4.50;;;16.10;55.90;;;;;;5052098;28;20203;-61
2023/12/03 10:51:44;;;;;;;5.80;5.28;;;16.10;55.90;;;;;;5052181;28;20210;-61
2023/12/03 10:54:10;;;;;;;6.47;5.05;;;16.10;55.80;;;;;;5051623;28;20229;-61
2023/12/03 10:56:36;;;;;;;6.70;5.55;;;16.00;55.80;;;;;;5051913;28;20172;-61
2023/12/03 10:59:04;;;;;;;5.15;4.65;;;16.00;55.80;;;;;;5052168;28;20245;-61
2023/12/03 11:01:30;;;;;;;5.88;5.28;;;16.00;55.80;;;;;;5051047;28;20179;-60
2023/12/03 11:04:03;;;;;;;6.32;5.55;;;15.90;55.80;;;;;;5052245;28;20273;-60
2023/12/03 11:06:32;;;;;;;6.13;5.18;;;16.00;55.90;;;;;;5049692;28;20179;-60
2023/12/03 11:08:58;;;;;;;5.70;5.10;;;16.00;55.80;;;;;;5051111;28;20175;-62
2023/12/03 11:11:23;;;;;;;5.65;5.13;;;16.00;55.70;;;;;;5051418;28;20657;-62
2023/12/03 11:13:53;;;;;;;5.88;5.03;;;16.10;55.70;;;;;;5050948;28;20190;-62
2023/12/03 11:16:19;;;;;;;5.13;4.63;;;16.00;55.70;;;;;;5034636;28;20187;-61
2023/12/03 11:18:53;;;;;;;5.95;5.35;;;16.00;55.70;;;;;;5052027;28;20542;-60
2023/12/03 11:21:27;;;;;;;5.20;4.60;;;16.00;55.70;;;;;;5049898;28;20178;-61
2023/12/03 11:24:30;;;;;;;5.35;4.85;;;16.10;55.70;;;;;;5050823;28;20210;-61
2023/12/03 11:26:57;;;;;;;5.90;5.00;;;16.00;55.70;;;;;;5051986;28;20179;-61
2023/12/03 11:29:49;;;;;;;6.28;5.05;;;16.00;55.80;;;;;;5049553;28;20591;-60
2023/12/03 11:32:15;;;;;;;6.63;5.20;;;16.00;55.80;;;;;;5051619;28;20182;-60
2023/12/03 11:34:41;;;;;;;5.85;5.25;;;15.90;55.80;;;;;;5051018;28;20181;-60
2023/12/03 11:37:09;;;;;;;7.03;5.15;;;16.00;55.80;;;;;;5051665;28;20262;-60
2023/12/03 11:39:43;;;;;;;4.95;4.45;;;16.00;56.20;;;;;;5051533;28;20179;-60
2023/12/03 11:42:09;;;;;;;6.78;5.15;;;16.00;56.10;;;;;;5050670;28;20213;-61
2023/12/03 11:44:34;;;;;;;6.97;5.15;;;16.00;56.80;;;;;;5053743;28;20179;-73
2023/12/03 11:47:05;;;;;;;7.80;5.13;;;16.00;57.10;;;;;;5054906;28;20179;-71
2023/12/03 11:49:33;;;;;;;6.25;5.05;;;16.00;56.80;;;;;;5054528;28;20175;-73
2023/12/03 11:51:59;;;;;;;8.07;5.90;;;16.00;56.70;;;;;;5055322;28;20223;-74
2023/12/03 11:54:25;;;;;;;7.13;5.30;;;16.00;56.50;;;;;;5055021;28;20232;-73
2023/12/03 11:56:52;;;;;;;6.85;4.93;;;16.00;56.40;;;;;;5054609;28;20186;-68
2023/12/03 11:59:17;;;;;;;7.55;5.55;;;16.10;57.10;;;;;;5053799;28;20222;-69
2023/12/03 12:01:43;;;;;;;6.72;4.78;;;16.10;56.90;;;;;;5055190;28;20657;-68
2023/12/03 12:04:08;;;;;;;8.15;5.07;;;16.20;57.10;;;;;;5054465;28;20266;-68
2023/12/03 12:06:34;;;;;;;6.32;4.50;;;16.30;57.10;;;;;;5054735;28;20262;-69
2023/12/03 12:09:09;;;;;;;6.10;4.93;;;16.30;57.30;;;;;;5055417;28;20179;-75
2023/12/03 12:11:34;;;;;;;7.53;4.63;;;16.30;57.10;;;;;;5054341;28;20536;-76
2023/12/03 12:14:00;;;;;;;9.52;5.30;;;16.30;57.30;;;;;;5055118;28;20174;-74
2023/12/03 12:16:25;;;;;;;7.53;5.63;;;16.30;57.40;;;;;;5053534;28;20190;-74
2023/12/03 12:18:51;;;;;;;8.18;5.90;;;16.30;57.70;;;;;;5054522;28;20167;-73
2023/12/03 12:21:16;;;;;;;10.13;5.15;;;16.30;57.80;;;;;;5054998;28;20182;-74
2023/12/03 12:23:43;;;;;;;10.57;5.68;;;16.30;57.90;;;;;;5054595;28;20253;-76
2023/12/03 12:26:09;;;;;;;6.60;4.93;;;16.20;57.90;;;;;;5054442;28;20179;-76
2023/12/03 12:28:35;;;;;;;6.57;4.68;;;16.30;58.10;;;;;;5054629;28;20178;-75
2023/12/03 12:31:01;;;;;;;6.65;4.88;;;16.30;58.20;;;;;;5054132;28;20175;-72
2023/12/03 12:33:27;;;;;;;6.72;5.32;;;16.30;58.20;;;;;;5053348;28;20182;-69